首页
METAR-TAF:

METAR-TAF

机场 :

Gillette, 怀俄明州, 美国

纬度: 44-20-22N, 经度: 105-32-31W, 海拔: 1330米

当前天气观测

该预报发布于1小时和1分钟前的19:53 UTC
风速8节,风向西转西南,有时为24节阵风
温度 19°C
湿度 18%
气压 1008 hPa
能見度: 16.1公里
天空无云

METAR: KGCC 071953Z AUTO 25008G24KT 10SM CLR 19/M06 A2977 RMK AO2 WSHFT 1930 SLP062 T01891061

时间: 14:54 (20:54 UTC)

预报

该预报发布于3小时和34分钟前的17:20 UTC
预报有效从07日的 18点(UTC)到 08日的 18点(UTC)
风速16节,风向西,有时为26节阵风
能見度: 10公里
散云层高于25000英尺
从 08日的 0100点(UTC)
风速10节,风向西北
能見度: 10公里
散云层高于10000英尺
从 08日的 1100点(UTC)
风速14节,风向北转西北,有时为24节阵风
能見度: 10公里
多云层高于1500英尺

TAF: KGCC 071720Z 0718/0818 27016G26KT P6SM SCT250 FM080100 31010KT P6SM SCT100 FM081100 34014G24KT P6SM BKN015

超过4000个机场的气象观测和天气预报(METAR&TAF报告)。

可查询的气象台以黄色和红色小点在地图上表示。

将鼠标移到小点上方,可查看气象台名称。

然后点击查看天气观测和预报。

如需切换地图:点击带黑十字的绿色按钮放大地图;点击带横线的绿色按钮缩小地图;或者点击绿色箭头查看邻近地区的地图。


METAR-TAF: